KCIR

Details ICAO KCIR
Name CAIRO RGNL
Region United States
Timezone America/Chicago (UTC-5.0)
Plans Departing 0
Arriving 7
Stats Elevation 321 ft / 98 m (AMSL)
Location 37.064101° -89.219373°
Runways 2
Magnetic Variation 2.137° W
Sunrise 2018-05-24 10:43:48 UTC / 2018-05-24 05:43:48 Local
Sunset 2018-05-25 01:06:32 UTC / 2018-05-24 20:06:32 Local
Advertisement - Login to hide

Runways

ID Width Length Bearing (true) Bearing (mag) Surface Threshold Offset Overrun Length
02 60 ft / 18 m 3,206 ft / 977 m 21.30° 23.44° Asphalt 0 ft / 0 m 0 ft / 0 m
14 100 ft / 30 m 4,057 ft / 1,237 m 140.63° 142.77° Asphalt 0 ft / 0 m 0 ft / 0 m
20 60 ft / 18 m 3,206 ft / 977 m 201.30° 203.44° Asphalt 0 ft / 0 m 0 ft / 0 m
32 100 ft / 30 m 4,057 ft / 1,237 m 320.64° 322.78° Asphalt 0 ft / 0 m 0 ft / 0 m

Map

Weather


0- 5 10 15 20 25 30 35+ Temperature / ° C

Clouds and Precipitation
Forecast for 2018-05-24 06:00 UTC. Updated an hour ago

Ground ~20,000 ft ~40,000 ft Winds

METAR

KCIR 240635Z AUTO 00000KT 10SM CLR 21/20 A3009 RMK AO2 T02060200

TAF

Not found

Frequencies

Recorded 118.02 MHz AWOS 3
Unicom 122.80 MHz CTAF/UNICOM
Warning: Do not use this data for real-world aviation or navigation. No guarantee of current accuracy is given.